Time;durP1;ratioP1;P1;durP2;ratioP2;P2;SDS_P1;SDS_P2;PMS_P1;PMS_P2;Temp;Humidity;BMP_temperature;BMP_pressure;BME280_temperature;BME280_humidity;BME280_pressure;Samples;Min_cycle;Max_cycle;Signal;HPM_P1;HPM_P2
2021/05/03 00:02:18;;;;;;;3.62;2.17;;;;;;;2.90;76.57;99083.28;1770946;79;20970;-71
2021/05/03 00:04:44;;;;;;;;;;;;;;;2.90;76.56;99089.72;1778464;79;20930;-71
2021/05/03 00:07:12;;;;;;;4.03;1.70;;;;;;;2.88;76.51;99087.63;1772387;79;21205;-71
2021/05/03 00:09:39;;;;;;;5.20;2.30;;;;;;;2.88;76.47;99094.06;1772221;79;28187;-71
2021/05/03 00:12:07;;;;;;;6.30;1.90;;;;;;;2.86;76.52;99092.00;1772726;79;21616;-70
2021/05/03 00:14:34;;;;;;;5.25;2.30;;;;;;;2.86;76.32;99098.44;1777377;79;21023;-71
2021/05/03 00:17:01;;;;;;;6.05;1.77;;;;;;;2.85;76.50;99098.02;1773980;79;21645;-71
2021/05/03 00:19:28;;;;;;;3.67;1.87;;;;;;;2.85;76.50;99101.89;1777384;79;22188;-70
2021/05/03 00:21:55;;;;;;;5.25;2.40;;;;;;;2.83;76.42;99107.55;1773941;79;20985;-70
2021/05/03 00:24:22;;;;;;;4.35;1.50;;;;;;;2.82;76.46;99108.41;1771927;79;21579;-70
2021/05/03 00:26:49;;;;;;;4.30;2.17;;;;;;;2.82;76.51;99103.70;1775802;79;20980;-70
2021/05/03 00:29:16;;;;;;;9.78;2.17;;;;;;;2.81;76.52;99111.89;1772597;79;20962;-70
2021/05/03 00:31:43;;;;;;;7.90;3.00;;;;;;;2.81;76.43;99110.59;1778049;79;21203;-70
2021/05/03 00:34:10;;;;;;;7.40;2.42;;;;;;;2.81;76.42;99110.59;1771998;79;21463;-71
2021/05/03 00:36:37;;;;;;;6.45;2.35;;;;;;;2.81;76.41;99116.20;1775094;79;21539;-70
2021/05/03 00:39:04;;;;;;;5.17;2.47;;;;;;;2.81;76.31;99115.75;1776178;79;20980;-71
2021/05/03 00:41:32;;;;;;;7.78;2.75;;;;;;;2.81;76.42;99119.63;1778031;79;20902;-71
2021/05/03 00:43:59;;;;;;;7.00;2.30;;;;;;;2.82;76.38;99121.75;1776003;79;21371;-71
2021/05/03 00:46:26;;;;;;;4.80;2.00;;;;;;;2.81;76.29;99117.05;1777330;79;24227;-71
2021/05/03 00:48:53;;;;;;;4.65;2.10;;;;;;;2.80;76.17;99120.52;1776537;79;21566;-71
2021/05/03 00:51:20;;;;;;;5.20;2.02;;;;;;;2.81;76.26;99124.78;1775045;79;20970;-71
2021/05/03 00:53:47;;;;;;;5.53;2.70;;;;;;;2.80;76.19;99120.52;1776009;79;20964;-71
2021/05/03 00:56:14;;;;;;;3.47;1.80;;;;;;;2.78;76.28;99127.44;1779415;79;22194;-71
2021/05/03 00:58:41;;;;;;;9.18;1.87;;;;;;;2.78;76.25;99118.41;1776548;79;20980;-71
2021/05/03 01:01:08;;;;;;;4.58;2.22;;;;;;;2.77;76.18;99120.57;1782289;79;20985;-71
2021/05/03 01:03:36;;;;;;;4.67;1.52;;;;;;;2.77;76.30;99120.57;1769693;79;20981;-71
2021/05/03 01:06:03;;;;;;;2.62;1.92;;;;;;;2.78;76.14;99131.75;1774139;79;20972;-71
2021/05/03 01:08:30;;;;;;;5.97;1.92;;;;;;;2.79;76.24;99125.25;1778288;79;21134;-71
2021/05/03 01:10:58;;;;;;;7.03;2.40;;;;;;;2.79;76.26;99129.56;1778863;79;21047;-71
2021/05/03 01:13:25;;;;;;;4.85;2.17;;;;;;;2.79;76.30;99129.12;1774399;79;21000;-71
2021/05/03 01:15:52;;;;;;;7.50;2.20;;;;;;;2.79;76.35;99131.70;1774993;79;20913;-71
2021/05/03 01:18:24;;;;;;;4.03;1.90;;;;;;;2.79;76.24;99130.41;1778094;79;21000;-71
2021/05/03 01:20:48;;;;;;;4.12;2.02;;;;;;;2.80;76.32;99138.56;1771491;79;21214;-71
2021/05/03 01:23:15;;;;;;;5.00;1.80;;;;;;;2.79;76.29;99142.01;1773358;79;21012;-71
2021/05/03 01:25:42;;;;;;;3.45;1.72;;;;;;;2.80;76.36;99138.56;1770173;79;21780;-71
2021/05/03 01:28:09;;;;;;;7.47;2.15;;;;;;;2.80;76.29;99142.85;1779733;79;25687;-71
2021/05/03 01:30:42;;;;;;;2.85;1.50;;;;;;;2.80;76.06;99145.43;1778429;79;21036;-71
2021/05/03 01:33:12;;;;;;;5.45;1.50;;;;;;;2.81;76.15;99144.12;1755956;80;21194;-71
2021/05/03 01:35:40;;;;;;;5.42;1.60;;;;;;;2.81;76.04;99147.98;1782787;79;21043;-71
2021/05/03 01:38:08;;;;;;;3.42;1.40;;;;;;;2.81;75.99;99145.41;1760946;80;20925;-71
2021/05/03 01:40:38;;;;;;;3.50;1.40;;;;;;;2.83;75.93;99141.48;1778176;79;20989;-71
2021/05/03 01:43:21;;;;;;;4.45;1.70;;;;;;;2.83;76.04;99135.03;1781114;79;21139;-71
2021/05/03 01:45:52;;;;;;;2.92;1.47;;;;;;;2.83;76.01;99140.20;1778497;79;21194;-71
2021/05/03 01:48:22;;;;;;;4.70;1.50;;;;;;;2.82;75.84;99139.35;1774642;79;21503;-71
2021/05/03 01:50:51;;;;;;;8.23;1.52;;;;;;;2.84;75.68;99140.17;1759662;79;21087;-71
2021/05/03 01:53:19;;;;;;;1.65;1.05;;;;;;;2.84;74.91;99137.59;1778133;79;21101;-71
2021/05/03 01:55:50;;;;;;;4.00;1.27;;;;;;;2.85;75.36;99137.98;1776758;79;20988;-71
2021/05/03 01:58:17;;;;;;;3.05;1.35;;;;;;;2.86;75.42;99140.98;1781039;79;21190;-71
2021/05/03 02:00:44;;;;;;;5.10;1.67;;;;;;;2.87;75.42;99141.38;1777698;79;20957;-71
2021/05/03 02:03:21;;;;;;;3.40;1.40;;;;;;;2.86;75.07;99144.86;1780899;79;21100;-71
2021/05/03 02:05:49;;;;;;;4.95;1.30;;;;;;;2.88;75.20;99146.92;1777800;79;21113;-71
2021/05/03 02:08:17;;;;;;;5.87;1.37;;;;;;;2.86;73.91;99146.14;1775055;79;21142;-71
2021/05/03 02:10:44;;;;;;;8.08;1.77;;;;;;;2.89;75.14;99145.22;1777015;79;21207;-71
2021/05/03 02:13:12;;;;;;;3.00;1.60;;;;;;;2.89;75.01;99138.33;1778033;79;24429;-71
2021/05/03 02:15:39;;;;;;;2.15;1.00;;;;;;;2.89;75.09;99142.20;1777405;79;21122;-72
2021/05/03 02:18:07;;;;;;;2.75;1.37;;;;;;;2.89;74.76;99146.06;1775197;79;20912;-71
2021/05/03 02:20:34;;;;;;;2.83;1.32;;;;;;;2.88;75.01;99136.61;1780207;78;21149;-71
2021/05/03 02:23:01;;;;;;;3.80;1.45;;;;;;;2.88;75.01;99149.51;1776757;78;21187;-71
2021/05/03 02:25:28;;;;;;;;;;;;;;;2.87;75.14;99146.53;1778402;79;21084;-71
2021/05/03 02:27:57;;;;;;;2.95;1.90;;;;;;;2.86;75.17;99150.02;1780055;79;20490;-71
2021/05/03 02:30:24;;;;;;;4.67;2.58;;;;;;;2.86;75.12;99147.87;1776343;79;21032;-71
2021/05/03 02:32:51;;;;;;;8.50;1.70;;;;;;;2.84;75.13;99149.20;1780039;79;20945;-71
2021/05/03 02:35:22;;;;;;;3.90;2.40;;;;;;;2.84;75.02;99155.64;1780524;79;21964;-71
2021/05/03 02:37:55;;;;;;;5.05;2.52;;;;;;;2.82;75.17;99157.84;1771925;79;21032;-72
2021/05/03 02:40:23;;;;;;;4.20;1.92;;;;;;;2.82;75.19;99154.82;1779769;79;21530;-71
2021/05/03 02:42:53;;;;;;;3.15;1.62;;;;;;;2.82;75.13;99161.27;1774804;79;20965;-72
2021/05/03 02:45:22;;;;;;;3.98;1.60;;;;;;;2.80;75.07;99164.35;1780628;79;21530;-71
2021/05/03 02:47:50;;;;;;;5.78;1.98;;;;;;;2.78;75.10;99155.80;1773145;79;22628;-71
2021/05/03 02:50:18;;;;;;;4.78;1.40;;;;;;;2.78;75.16;99163.53;1769799;79;21068;-71
2021/05/03 02:52:45;;;;;;;4.47;1.90;;;;;;;2.78;75.12;99159.66;1777639;79;21068;-71
2021/05/03 02:55:13;;;;;;;4.37;1.65;;;;;;;2.79;75.22;99162.63;1778809;79;21652;-72
2021/05/03 02:57:43;;;;;;;1.90;1.02;;;;;;;2.78;75.24;99168.69;1779507;79;21531;-71
2021/05/03 03:00:31;;;;;;;4.33;1.40;;;;;;;2.80;75.21;99170.80;1775480;79;21212;-71
2021/05/03 03:02:59;;;;;;;6.17;2.17;;;;;;;2.81;75.24;99173.77;1777181;79;21076;-71
2021/05/03 03:05:27;;;;;;;3.90;1.52;;;;;;;2.81;75.21;99171.19;1777052;79;21911;-71
2021/05/03 03:07:54;;;;;;;3.90;1.57;;;;;;;2.81;75.00;99175.05;1771267;79;21653;-71
2021/05/03 03:10:21;;;;;;;3.83;1.65;;;;;;;2.82;75.15;99170.29;1777892;79;21456;-71
2021/05/03 03:12:49;;;;;;;4.28;1.60;;;;;;;2.82;75.18;99175.45;1774743;79;22241;-71
2021/05/03 03:15:18;;;;;;;;;;;;;;;2.83;75.20;99179.74;1786191;79;21087;-72
2021/05/03 03:17:48;;;;;;;3.15;1.45;;;;;;;2.85;75.30;99179.69;1778341;79;20373;-72
2021/05/03 03:20:16;;;;;;;3.22;1.60;;;;;;;2.85;75.22;99187.42;1779140;79;21002;-71
2021/05/03 03:22:43;;;;;;;1.75;1.05;;;;;;;2.86;75.25;99186.11;1774720;79;20980;-72
2021/05/03 03:25:12;;;;;;;6.10;2.50;;;;;;;2.86;75.24;99184.82;1776812;79;22245;-71
2021/05/03 03:27:39;;;;;;;2.85;1.10;;;;;;;2.88;75.16;99190.77;1773475;79;21020;-71
2021/05/03 03:30:09;;;;;;;7.20;1.57;;;;;;;2.89;75.25;99191.19;1774517;79;21963;-71
2021/05/03 03:32:44;;;;;;;3.45;1.80;;;;;;;2.89;75.19;99196.34;1775553;79;20956;-71
2021/05/03 03:35:15;;;;;;;3.77;1.37;;;;;;;2.90;75.21;99192.87;1775436;79;20955;-71
2021/05/03 03:37:44;;;;;;;4.15;1.40;;;;;;;2.93;74.99;99203.55;1776912;79;21604;-71
2021/05/03 03:40:14;;;;;;;4.95;2.00;;;;;;;2.96;75.13;99198.77;1731819;81;21539;-71
2021/05/03 03:42:41;;;;;;;4.58;1.72;;;;;;;2.98;75.15;99200.87;1705357;83;20942;-71
2021/05/03 03:45:11;;;;;;;1.95;1.50;;;;;;;3.01;75.12;99204.22;1731252;81;21131;-72
2021/05/03 03:47:39;;;;;;;4.00;1.60;;;;;;;3.04;75.16;99204.59;1727241;81;21022;-71
2021/05/03 03:50:07;;;;;;;3.12;1.50;;;;;;;3.07;75.05;99201.92;1727842;81;21256;-71
2021/05/03 03:52:34;;;;;;;3.08;1.30;;;;;;;3.07;74.50;99209.22;1728766;81;21012;-72
2021/05/03 03:55:02;;;;;;;5.47;2.45;;;;;;;3.09;75.17;99204.03;1724013;81;21249;-71
2021/05/03 03:57:29;;;;;;;4.15;1.90;;;;;;;3.11;75.41;99191.95;1729998;81;21117;-72
2021/05/03 03:59:57;;;;;;;;;;;;;;;3.16;75.35;99200.39;1735354;81;21560;-72
2021/05/03 04:02:25;;;;;;;3.92;1.60;;;;;;;3.17;75.27;99196.95;1717867;81;21219;-72
2021/05/03 04:05:10;;;;;;;5.00;2.12;;;;;;;3.19;75.32;99206.77;1699805;82;21460;-71
2021/05/03 04:21:06;;;;;;;3.27;2.00;;;;;;;3.44;74.71;99220.33;1780918;80;21675;-71
2021/05/03 04:23:47;;;;;;;3.27;1.47;;;;;;;3.48;75.12;99215.51;1778075;80;21134;-73
2021/05/03 04:26:02;;;;;;;2.80;1.00;;;;;;;3.52;74.77;99217.11;1773625;80;21570;-73
2021/05/03 04:28:29;;;;;;;5.72;2.05;;;;;;;3.56;74.71;99220.03;1782418;80;21108;-74
2021/05/03 04:30:56;;;;;;;5.70;1.98;;;;;;;3.58;74.97;99221.68;1779258;80;21397;-73
2021/05/03 04:33:23;;;;;;;3.92;1.60;;;;;;;3.64;74.99;99220.67;1780745;80;21121;-73
2021/05/03 04:35:50;;;;;;;1.92;1.40;;;;;;;3.69;75.02;99223.95;1772693;80;21036;-73
2021/05/03 04:38:17;;;;;;;6.20;2.02;;;;;;;3.75;74.94;99231.55;1779155;78;21089;-72
2021/05/03 04:40:46;;;;;;;4.00;1.32;;;;;;;3.79;74.70;99233.15;1776447;78;21330;-73
2021/05/03 04:43:16;;;;;;;2.02;1.20;;;;;;;3.86;74.65;99229.94;1771981;80;22200;-73
2021/05/03 04:45:43;;;;;;;4.28;1.15;;;;;;;3.92;74.34;99231.09;1783482;80;21223;-73
2021/05/03 04:48:10;;;;;;;4.40;1.50;;;;;;;3.98;74.32;99230.06;1777292;79;21131;-72
2021/05/03 04:50:37;;;;;;;3.17;1.40;;;;;;;4.08;74.35;99236.64;1774185;80;21634;-73
2021/05/03 04:53:05;;;;;;;2.80;1.72;;;;;;;4.17;73.62;99237.70;1778593;78;21187;-73
2021/05/03 04:55:32;;;;;;;2.00;1.20;;;;;;;4.28;73.89;99235.22;1770051;78;21528;-73
2021/05/03 04:57:59;;;;;;;5.25;1.75;;;;;;;4.46;74.13;99247.62;1753337;80;21180;-73
2021/05/03 05:00:26;;;;;;;2.85;1.30;;;;;;;4.60;73.01;99237.70;1779389;78;21014;-73
2021/05/03 05:02:53;;;;;;;2.70;1.42;;;;;;;4.69;72.35;99237.41;1775698;80;21152;-74
2021/05/03 05:05:20;;;;;;;1.92;0.82;;;;;;;4.75;72.16;99240.70;1778478;78;21179;-71
2021/05/03 05:07:47;;;;;;;5.97;1.35;;;;;;;4.80;67.82;99241.41;1778395;80;24945;-73
2021/05/03 05:10:14;;;;;;;1.70;1.05;;;;;;;4.80;69.03;99247.42;1770258;78;21116;-73
2021/05/03 05:12:42;;;;;;;2.50;1.40;;;;;;;4.91;67.76;99244.50;1781754;80;24503;-73
2021/05/03 05:15:09;;;;;;;1.72;1.10;;;;;;;5.08;69.79;99242.22;1763483;80;21609;-73
2021/05/03 05:17:37;;;;;;;1.87;1.17;;;;;;;5.24;69.68;99249.49;1781580;80;21218;-73
2021/05/03 05:20:06;;;;;;;1.90;1.30;;;;;;;5.42;70.01;99247.56;1781264;78;21222;-73
2021/05/03 05:22:35;;;;;;;1.72;1.00;;;;;;;5.66;67.32;99248.91;1783481;78;21974;-71
2021/05/03 05:25:03;;;;;;;1.00;0.90;;;;;;;5.83;66.39;99244.00;1785261;78;21045;-73
2021/05/03 05:27:30;;;;;;;1.60;1.10;;;;;;;5.87;66.77;99249.91;1790028;80;21165;-73
2021/05/03 05:29:57;;;;;;;2.45;0.95;;;;;;;5.97;68.07;99243.09;1777908;78;21258;-74
2021/05/03 05:32:24;;;;;;;3.02;1.20;;;;;;;6.10;68.79;99241.34;1781909;80;21246;-73
2021/05/03 05:34:51;;;;;;;1.75;1.05;;;;;;;6.15;67.63;99253.69;1780192;79;21837;-74
2021/05/03 05:37:18;;;;;;;3.00;0.95;;;;;;;6.14;67.15;99252.84;1780409;78;21071;-74
2021/05/03 05:39:45;;;;;;;3.22;1.22;;;;;;;6.14;67.24;99263.67;1786342;80;21147;-74
2021/05/03 05:42:13;;;;;;;3.77;0.98;;;;;;;6.05;65.56;99255.32;1789841;80;21140;-73
2021/05/03 05:44:40;;;;;;;3.90;1.05;;;;;;;6.03;65.68;99261.00;1787732;78;21247;-73
2021/05/03 05:47:06;;;;;;;1.17;0.93;;;;;;;5.90;65.99;99257.12;1780818;80;21045;-74
2021/05/03 05:49:33;;;;;;;1.70;1.02;;;;;;;5.89;67.78;99261.92;1782475;80;21709;-73
2021/05/03 05:52:01;;;;;;;2.37;1.07;;;;;;;5.85;67.80;99257.73;1780696;80;21149;-73
2021/05/03 05:54:28;;;;;;;;;;;;;;;5.87;67.75;99263.70;1778195;80;21128;-73
2021/05/03 05:56:55;;;;;;;3.20;1.17;;;;;;;5.87;67.95;99266.30;1776830;80;21145;-73
2021/05/03 05:59:23;;;;;;;4.28;1.52;;;;;;;5.92;67.79;99269.58;1781643;78;21151;-73
2021/05/03 06:01:51;;;;;;;2.65;1.30;;;;;;;6.01;68.52;99271.87;1777182;78;21143;-74
2021/05/03 06:04:18;;;;;;;;;;;;;;;6.05;67.39;99272.17;1759276;80;21129;-74
2021/05/03 06:06:45;;;;;;;2.92;1.52;;;;;;;5.98;66.00;99275.03;1777910;78;20248;-74
2021/05/03 06:09:12;;;;;;;2.60;1.52;;;;;;;5.90;66.56;99278.30;1784404;80;21252;-73
2021/05/03 06:11:40;;;;;;;3.45;1.40;;;;;;;5.90;67.34;99277.84;1778471;78;21184;-74
2021/05/03 06:14:07;;;;;;;1.42;1.25;;;;;;;5.87;64.79;99279.26;1776269;79;20954;-74
2021/05/03 06:16:34;;;;;;;2.30;1.30;;;;;;;5.87;64.79;99279.26;1780274;80;21033;-74
2021/05/03 06:19:05;;;;;;;7.10;1.55;;;;;;;5.86;66.25;99276.28;1779235;80;21204;-74
2021/05/03 06:21:32;;;;;;;1.67;1.30;;;;;;;5.95;66.60;99282.45;1779488;78;21278;-74
2021/05/03 06:23:59;;;;;;;1.57;1.35;;;;;;;6.03;64.48;99281.73;1777407;80;21251;-74
2021/05/03 06:26:26;;;;;;;1.90;1.37;;;;;;;6.04;65.61;99274.34;1774998;78;21132;-73
2021/05/03 06:28:54;;;;;;;4.33;1.30;;;;;;;6.28;66.62;99274.38;1782902;80;21796;-73
2021/05/03 06:31:21;;;;;;;2.30;1.42;;;;;;;6.47;66.66;99275.38;1778060;80;26597;-73
2021/05/03 06:33:48;;;;;;;;;;;;;;;6.53;66.20;99279.95;1779503;80;21401;-72
2021/05/03 06:36:15;;;;;;;2.22;1.40;;;;;;;6.44;59.65;99279.39;1772479;80;20183;-73
2021/05/03 06:38:42;;;;;;;1.07;0.98;;;;;;;6.35;64.27;99282.76;1776110;78;20986;-74
2021/05/03 06:41:09;;;;;;;1.75;1.10;;;;;;;6.35;63.61;99286.19;1778332;78;21195;-74
2021/05/03 06:43:36;;;;;;;1.77;0.93;;;;;;;6.32;63.87;99292.79;1773071;78;21202;-74
2021/05/03 06:46:03;;;;;;;1.55;1.22;;;;;;;6.38;63.96;99288.67;1771241;78;21260;-74
2021/05/03 06:48:30;;;;;;;2.25;1.15;;;;;;;6.29;63.00;99291.61;1780839;80;21242;-73
2021/05/03 06:50:57;;;;;;;1.98;0.95;;;;;;;6.31;63.46;99293.70;1770861;78;21993;-72
2021/05/03 06:53:25;;;;;;;2.15;1.40;;;;;;;6.22;62.72;99287.57;1774386;78;21204;-73
2021/05/03 06:55:53;;;;;;;1.40;0.98;;;;;;;6.19;62.69;99295.42;1769892;78;21215;-73
2021/05/03 06:58:20;;;;;;;1.72;1.10;;;;;;;6.21;62.00;99296.23;1771562;78;21442;-72
2021/05/03 07:00:47;;;;;;;1.47;1.17;;;;;;;6.18;61.75;99297.64;1776081;78;21156;-73
2021/05/03 07:03:14;;;;;;;2.65;1.32;;;;;;;6.28;64.20;99299.01;1774478;80;21165;-78
2021/05/03 07:05:41;;;;;;;2.92;1.20;;;;;;;6.28;64.20;99299.01;1776150;80;28827;-70
2021/05/03 07:08:10;;;;;;;1.37;1.27;;;;;;;6.41;63.90;99305.44;1776576;80;26598;-70
2021/05/03 07:10:43;;;;;;;1.82;1.55;;;;;;;6.38;63.71;99304.23;1771871;78;21017;-71
2021/05/03 07:13:08;;;;;;;3.95;1.95;;;;;;;6.23;63.01;99308.23;1756715;80;21259;-72
2021/05/03 07:15:35;;;;;;;;;;;;;;;6.17;63.91;99305.03;1777840;80;21208;-72
2021/05/03 07:18:05;;;;;;;2.95;1.80;;;;;;;6.15;64.26;99305.53;1779587;80;20275;-75
2021/05/03 07:20:32;;;;;;;2.25;1.40;;;;;;;6.25;64.43;99300.42;1778322;80;21127;-73
2021/05/03 07:22:59;;;;;;;1.77;1.40;;;;;;;6.30;64.38;99308.84;1773833;80;21206;-73
2021/05/03 07:25:27;;;;;;;2.87;1.85;;;;;;;6.29;64.32;99309.76;1776618;80;21073;-72
2021/05/03 07:27:56;;;;;;;2.65;1.60;;;;;;;6.28;64.28;99313.27;1777137;80;21156;-73
2021/05/03 07:30:23;;;;;;;2.12;1.45;;;;;;;6.31;64.30;99323.52;1777113;78;21713;-73
2021/05/03 07:32:50;;;;;;;3.50;1.70;;;;;;;6.34;63.89;99318.22;1778182;78;21183;-74
2021/05/03 07:35:17;;;;;;;2.72;1.47;;;;;;;6.42;63.63;99316.20;1777100;78;21239;-73
2021/05/03 07:37:44;;;;;;;2.05;1.40;;;;;;;6.55;64.34;99318.33;1776542;80;21216;-73
2021/05/03 07:42:00;;;;;;;1.20;1.10;;;;;;;6.70;61.99;99333.34;1776817;78;22474;-73
2021/05/03 07:44:27;;;;;;;5.00;1.95;;;;;;;6.49;60.37;99328.48;1746951;81;21141;-73
2021/05/03 07:46:54;;;;;;;2.60;1.80;;;;;;;6.64;62.61;99323.19;1751971;80;21273;-73
2021/05/03 07:49:21;;;;;;;1.82;1.50;;;;;;;6.87;63.23;99325.75;1749369;81;21625;-73
2021/05/03 07:51:52;;;;;;;3.20;1.60;;;;;;;7.17;63.04;99334.56;1750691;81;21194;-73
2021/05/03 07:54:23;;;;;;;3.58;1.72;;;;;;;7.36;63.18;99325.55;1750179;80;21028;-73
2021/05/03 07:56:51;;;;;;;1.55;1.30;;;;;;;7.29;62.59;99334.52;1752905;80;21045;-72
2021/05/03 07:59:18;;;;;;;1.45;1.22;;;;;;;7.08;62.34;99325.81;1729314;80;21582;-70
2021/05/03 08:01:45;;;;;;;;;;;;;;;7.09;62.25;99332.72;1755573;80;21123;-74
2021/05/03 08:04:15;;;;;;;1.80;1.52;;;;;;;7.15;61.72;99327.27;1751064;80;20153;-73
2021/05/03 08:09:21;;;;;;;1.27;1.00;;;;;;;7.36;59.21;99334.19;1834853;76;22745;-71
2021/05/03 08:11:52;;;;;;;1.10;1.00;;;;;;;7.22;57.45;99344.28;1778349;79;21578;-71
2021/05/03 08:14:20;;;;;;;1.12;1.00;;;;;;;7.38;60.05;99331.08;1776806;79;21273;-73
2021/05/03 08:16:51;;;;;;;1.65;1.27;;;;;;;7.57;58.61;99327.75;1804605;79;21244;-72
2021/05/03 08:19:17;;;;;;;2.77;1.35;;;;;;;7.75;59.79;99325.66;1795258;77;21175;-72
2021/05/03 08:21:44;;;;;;;3.20;1.30;;;;;;;7.88;59.66;99333.80;1800185;79;21072;-72
2021/05/03 08:24:13;;;;;;;2.58;1.47;;;;;;;7.95;59.31;99330.48;1741246;80;21001;-73
2021/05/03 08:26:40;;;;;;;5.67;1.22;;;;;;;7.99;55.99;99333.35;1735641;80;21200;-73
2021/05/03 08:29:07;;;;;;;2.22;1.25;;;;;;;7.97;59.14;99332.56;1737520;80;21069;-74
2021/05/03 08:31:45;;;;;;;2.25;1.20;;;;;;;8.23;59.52;99337.50;1729479;81;21623;-73
2021/05/03 08:34:13;;;;;;;1.67;1.20;;;;;;;8.56;59.93;99331.72;1735147;81;21057;-73
2021/05/03 08:36:41;;;;;;;2.02;1.20;;;;;;;8.82;59.79;99324.47;1731256;81;21205;-70
2021/05/03 08:39:10;;;;;;;2.40;1.62;;;;;;;9.15;60.17;99322.89;1742011;80;21199;-71
2021/05/03 08:41:40;;;;;;;1.95;1.20;;;;;;;9.58;58.70;99331.24;1741888;80;22352;-71
2021/05/03 08:44:07;;;;;;;2.25;1.00;;;;;;;9.49;55.12;99329.06;1732836;82;21172;-70
2021/05/03 08:46:39;;;;;;;2.45;0.80;;;;;;;8.87;54.57;99325.11;1740884;80;21233;-71
2021/05/03 08:56:54;;;;;;;1.37;0.95;;;;;;;8.74;54.81;99317.88;1800375;78;21041;-71
2021/05/03 08:59:21;;;;;;;0.82;0.80;;;;;;;8.80;55.12;99319.36;1797431;78;21582;-70
2021/05/03 09:01:50;;;;;;;1.50;1.40;;;;;;;8.90;54.59;99324.96;1802370;78;20961;-70
2021/05/03 09:04:19;;;;;;;2.22;1.17;;;;;;;9.15;55.63;99328.09;1796246;78;21190;-71
2021/05/03 09:07:02;;;;;;;1.85;1.20;;;;;;;9.33;56.54;99326.39;1796288;78;21168;-71
2021/05/03 09:09:36;;;;;;;4.10;1.12;;;;;;;9.16;53.69;99318.55;1798104;78;21077;-70
2021/05/03 09:12:07;;;;;;;1.12;1.00;;;;;;;9.26;55.59;99324.14;1797771;78;21208;-71
2021/05/03 09:14:58;;;;;;;0.85;0.85;;;;;;;9.17;54.77;99330.17;1799249;78;21655;-71
2021/05/03 09:17:39;;;;;;;5.62;1.77;;;;;;;9.10;51.09;99334.01;1802836;77;21204;-70
2021/05/03 09:20:15;;;;;;;1.20;1.00;;;;;;;8.91;53.59;99335.78;1806281;78;21240;-70
2021/05/03 09:22:48;;;;;;;1.57;0.70;;;;;;;8.98;51.80;99331.96;1803895;78;21139;-71
2021/05/03 09:25:41;;;;;;;6.25;1.20;;;;;;;8.93;52.28;99332.20;1800293;78;21193;-71
2021/05/03 09:28:19;;;;;;;2.62;1.10;;;;;;;9.12;54.26;99345.64;1800420;78;21267;-72
2021/05/03 09:30:49;;;;;;;1.42;0.82;;;;;;;9.26;54.67;99339.77;1796844;78;21206;-71
2021/05/03 09:33:35;;;;;;;1.55;0.93;;;;;;;9.71;55.44;99330.16;1802858;77;21657;-71
2021/05/03 09:36:09;;;;;;;3.00;1.00;;;;;;;10.06;55.47;99329.69;1800411;78;21664;-71
2021/05/03 09:38:49;;;;;;;1.72;0.78;;;;;;;10.18;53.88;99333.42;1798657;78;21197;-72
2021/05/03 09:41:26;;;;;;;2.67;0.95;;;;;;;10.16;52.59;99326.13;1793954;78;21115;-71
2021/05/03 09:43:59;;;;;;;3.15;0.90;;;;;;;10.17;54.03;99334.36;1802014;78;21021;-72
2021/05/03 09:46:48;;;;;;;2.98;0.90;;;;;;;10.14;52.15;99333.65;1802991;78;21163;-72
2021/05/03 09:49:22;;;;;;;2.05;1.65;;;;;;;10.05;54.02;99329.75;1798775;78;21498;-72
2021/05/03 09:51:59;;;;;;;6.37;0.98;;;;;;;10.47;54.79;99326.73;1795594;78;21194;-71
2021/05/03 09:54:30;;;;;;;4.97;1.27;;;;;;;10.66;49.38;99326.56;1802442;77;21570;-73
2021/05/03 09:57:11;;;;;;;2.62;0.90;;;;;;;10.60;53.76;99319.53;1804163;78;21246;-71
2021/05/03 09:59:47;;;;;;;6.60;1.87;;;;;;;10.75;54.39;99323.91;1806963;78;21217;-73
2021/05/03 10:02:35;;;;;;;1.80;0.78;;;;;;;10.86;53.50;99322.87;1798463;78;21146;-75
2021/05/03 10:07:43;;;;;;;1.93;1.00;;;;;;;10.40;51.76;99329.27;1799451;78;21195;-72
2021/05/03 10:10:20;;;;;;;2.12;1.00;;;;;;;10.50;49.42;99331.78;1802133;78;21179;-75
2021/05/03 10:12:48;;;;;;;3.65;1.40;;;;;;;10.23;50.36;99320.16;1798392;78;21005;-75
2021/05/03 10:15:17;;;;;;;2.45;1.00;;;;;;;10.32;51.70;99316.25;1801496;77;21219;-73
2021/05/03 10:17:46;;;;;;;1.65;1.15;;;;;;;10.69;52.39;99309.89;1804875;78;21261;-74
2021/05/03 10:20:20;;;;;;;2.17;1.17;;;;;;;10.60;51.58;99318.23;1804145;77;21242;-74
2021/05/03 10:22:53;;;;;;;2.02;1.00;;;;;;;10.67;52.85;99306.52;1798704;78;21570;-74
2021/05/03 10:25:21;;;;;;;1.40;1.20;;;;;;;10.86;53.02;99304.58;1805193;78;21182;-75
2021/05/03 10:27:50;;;;;;;2.20;1.70;;;;;;;10.98;53.07;99307.84;1808207;78;21013;-73
2021/05/03 10:30:21;;;;;;;2.40;1.52;;;;;;;11.20;53.43;99313.16;1803166;78;21207;-73
2021/05/03 10:33:03;;;;;;;4.62;1.32;;;;;;;11.25;52.34;99311.12;1801817;78;21629;-72
2021/05/03 10:35:41;;;;;;;2.00;1.40;;;;;;;11.27;53.31;99302.75;1803948;77;21247;-73
2021/05/03 10:38:39;;;;;;;4.20;2.75;;;;;;;11.66;53.71;99289.62;1801965;77;21564;-73
2021/05/03 10:41:27;;;;;;;4.28;1.55;;;;;;;11.99;53.55;99288.59;1802430;78;21586;-71
2021/05/03 10:44:18;;;;;;;2.77;1.60;;;;;;;11.59;51.39;99273.90;1803967;78;21202;-73
2021/05/03 10:49:18;;;;;;;2.25;1.47;;;;;;;11.20;50.65;99271.34;1804909;78;21163;-72
2021/05/03 10:51:54;;;;;;;1.70;1.40;;;;;;;11.11;51.82;99279.72;1804486;78;21191;-74
2021/05/03 10:57:23;;;;;;;1.57;1.25;;;;;;;10.63;51.11;99286.73;1792761;77;22382;-74
2021/05/03 10:59:57;;;;;;;2.33;1.50;;;;;;;10.72;51.79;99283.61;1767626;80;21225;-74
2021/05/03 11:02:43;;;;;;;2.42;1.60;;;;;;;10.84;50.62;99288.18;1769448;79;21209;-77
2021/05/03 11:05:22;;;;;;;1.92;1.70;;;;;;;10.82;50.48;99284.80;1766392;79;21886;-77
2021/05/03 11:08:10;;;;;;;4.10;1.57;;;;;;;11.13;52.19;99279.17;1772497;80;21224;-77
2021/05/03 11:11:01;;;;;;;2.42;1.90;;;;;;;11.93;52.38;99283.70;1767785;80;21608;-77
2021/05/03 11:13:55;;;;;;;5.15;1.80;;;;;;;12.32;52.07;99272.59;1768241;80;21192;-77
2021/05/03 11:16:33;;;;;;;5.85;1.80;;;;;;;12.26;50.29;99276.43;1720323;82;22071;-77
2021/05/03 11:19:27;;;;;;;5.03;1.92;;;;;;;11.97;50.49;99269.52;1740110;81;21088;-71
2021/05/03 11:21:55;;;;;;;3.75;1.70;;;;;;;11.86;51.34;99288.00;1722815;81;21273;-73
2021/05/03 11:29:54;;;;;;;4.22;1.60;;;;;;;11.75;51.65;99283.84;1799656;77;21418;-75
2021/05/03 11:32:18;;;;;;;2.62;1.77;;;;;;;11.99;48.76;99278.13;1805491;79;21183;-76
2021/05/03 11:35:05;;;;;;;5.67;1.65;;;;;;;11.86;50.94;99281.46;1801470;79;20993;-75
2021/05/03 11:37:37;;;;;;;2.42;1.40;;;;;;;11.89;51.12;99282.22;1796482;79;21019;-75
2021/05/03 11:48:06;;;;;;;3.80;2.15;;;;;;;11.57;50.99;99270.55;1773949;78;21925;-75
2021/05/03 11:50:33;;;;;;;2.80;2.10;;;;;;;11.72;51.05;99276.17;1741939;80;21073;-75
2021/05/03 11:53:02;;;;;;;5.90;2.17;;;;;;;11.71;50.91;99283.66;1739465;81;21605;-74
2021/05/03 11:55:31;;;;;;;3.65;2.05;;;;;;;11.60;50.66;99282.98;1743472;81;21230;-76
2021/05/03 11:57:59;;;;;;;2.83;2.20;;;;;;;11.39;50.77;99276.37;1744160;81;21053;-75
2021/05/03 12:00:27;;;;;;;4.05;2.10;;;;;;;11.09;50.53;99280.26;1740290;81;21156;-76
2021/05/03 12:03:12;;;;;;;4.80;2.90;;;;;;;10.76;50.75;99285.14;1742112;81;21139;-77
2021/05/03 12:05:38;;;;;;;4.22;3.27;;;;;;;10.39;50.26;99294.97;1744379;80;21275;-75
2021/05/03 12:08:15;;;;;;;5.78;3.25;;;;;;;9.76;51.26;99306.01;1747073;81;21092;-76
2021/05/03 12:10:43;;;;;;;4.78;3.45;;;;;;;9.47;51.53;99317.90;1745407;81;21583;-75
2021/05/03 12:13:19;;;;;;;;;;;;;;;9.07;51.83;99331.98;1745029;81;21227;-76
2021/05/03 12:15:46;;;;;;;4.17;3.30;;;;;;;8.70;52.51;99346.71;1741991;81;20267;-76
2021/05/03 12:18:18;;;;;;;4.78;3.95;;;;;;;8.30;52.52;99344.11;1743772;81;22324;-76
2021/05/03 12:20:46;;;;;;;4.67;3.70;;;;;;;8.11;52.94;99345.81;1748350;80;21684;-75
2021/05/03 12:23:14;;;;;;;;;;;;;;;7.93;53.12;99341.42;1747132;81;21189;-74
2021/05/03 12:25:55;;;;;;;3.90;3.20;;;;;;;7.83;53.55;99344.38;1738933;81;20469;-75
2021/05/03 12:28:27;;;;;;;5.75;3.90;;;;;;;7.67;53.43;99347.69;1738939;81;21183;-74
2021/05/03 12:30:59;;;;;;;6.30;3.50;;;;;;;7.50;53.82;99353.58;1745545;81;21222;-76
2021/05/03 12:33:28;;;;;;;5.08;3.83;;;;;;;7.32;54.18;99358.61;1745812;80;21286;-76
2021/05/03 12:35:56;;;;;;;6.05;3.70;;;;;;;7.14;54.46;99361.91;1744777;81;21196;-76
2021/05/03 12:38:30;;;;;;;;;;;;;;;6.89;54.64;99366.77;1745675;80;21610;-76
2021/05/03 12:41:01;;;;;;;4.95;3.67;;;;;;;6.63;55.42;99368.17;1751218;80;20242;-76
2021/05/03 12:48:47;;;;;;;5.67;3.45;;;;;;;6.18;56.18;99365.03;1769100;79;21575;-75
2021/05/03 12:51:22;;;;;;;4.28;3.55;;;;;;;6.18;56.33;99370.22;1763829;80;21254;-76